createdAt,value
2019-04-05T00:00:07.116Z,21.50
2019-04-05T00:02:36.292Z,21.50
2019-04-05T00:05:07.245Z,21.50
2019-04-05T00:07:36.399Z,21.50
2019-04-05T00:10:07.396Z,21.50
2019-04-05T00:12:36.565Z,21.50
2019-04-05T00:15:15.122Z,21.50
2019-04-05T00:17:38.256Z,21.50
2019-04-05T00:20:08.571Z,21.50
2019-04-05T00:22:37.740Z,21.50
2019-04-05T00:25:07.459Z,21.50
2019-04-05T00:27:36.631Z,21.50
2019-04-05T00:30:07.932Z,21.50
2019-04-05T00:32:37.096Z,21.40
2019-04-05T00:35:07.676Z,21.50
2019-04-05T00:37:36.859Z,21.50
2019-04-05T00:40:10.500Z,21.40
2019-04-05T00:42:39.636Z,21.40
2019-04-05T00:45:09.079Z,21.40
2019-04-05T00:47:38.220Z,21.40
2019-04-05T00:50:08.433Z,21.40
2019-04-05T00:52:37.601Z,21.40
2019-04-05T00:55:07.498Z,21.40
2019-04-05T00:57:36.684Z,21.40
2019-04-05T01:00:07.156Z,21.40
2019-04-05T01:02:36.301Z,21.40
2019-04-05T01:05:06.750Z,21.40
2019-04-05T01:07:35.888Z,21.40
2019-04-05T01:10:06.469Z,21.40
2019-04-05T01:12:35.651Z,21.40
2019-04-05T01:15:05.389Z,21.40
2019-04-05T01:17:34.546Z,21.40
2019-04-05T01:20:04.335Z,21.40
2019-04-05T01:22:33.675Z,21.40
2019-04-05T01:25:03.311Z,21.40
2019-04-05T01:27:32.489Z,21.30
2019-04-05T01:30:01.631Z,21.30
2019-04-05T01:32:30.801Z,21.30
2019-04-05T01:34:59.969Z,21.40
2019-04-05T01:37:29.120Z,21.30
2019-04-05T01:39:58.293Z,21.30
2019-04-05T01:42:27.492Z,21.30
2019-04-05T01:44:56.658Z,21.30
2019-04-05T01:47:25.821Z,21.30
2019-04-05T01:49:55.052Z,21.30
2019-04-05T01:52:24.204Z,21.30
2019-04-05T01:54:53.412Z,21.30
2019-04-05T01:57:22.571Z,21.30
2019-04-05T01:59:51.716Z,21.30
2019-04-05T02:02:20.866Z,21.30
2019-04-05T02:04:52.683Z,21.30
2019-04-05T02:07:20.911Z,21.30
2019-04-05T02:09:50.624Z,21.30
2019-04-05T02:12:19.763Z,21.30
2019-04-05T02:14:48.937Z,21.30
2019-04-05T02:17:18.119Z,21.30
2019-04-05T02:19:47.281Z,21.30
2019-04-05T02:22:16.419Z,21.30
2019-04-05T02:24:45.564Z,21.30
2019-04-05T02:27:14.741Z,21.30
2019-04-05T02:29:43.910Z,21.30
2019-04-05T02:32:13.126Z,21.30
2019-04-05T02:34:42.282Z,21.30
2019-04-05T02:37:11.453Z,21.30
2019-04-05T02:39:40.613Z,21.30
2019-04-05T02:42:09.945Z,21.30
2019-04-05T02:44:40.002Z,21.30
2019-04-05T02:47:09.160Z,21.30
2019-04-05T02:49:38.305Z,21.20
2019-04-05T02:52:07.444Z,21.30
2019-04-05T02:54:36.660Z,21.30
2019-04-05T02:57:05.833Z,21.30
2019-04-05T02:59:34.970Z,21.30
2019-04-05T03:02:04.760Z,21.30
2019-04-05T03:04:33.918Z,21.30
2019-04-05T03:07:03.060Z,21.20
2019-04-05T03:09:32.267Z,21.30
2019-04-05T03:12:01.430Z,21.20
2019-04-05T03:14:30.592Z,21.20
2019-04-05T03:16:59.761Z,21.20
2019-04-05T03:19:31.354Z,21.20
2019-04-05T03:22:03.704Z,21.20
2019-04-05T03:24:33.317Z,21.30
2019-04-05T03:27:07.335Z,21.20
2019-04-05T03:29:36.822Z,21.20
2019-04-05T03:32:05.982Z,21.20
2019-04-05T03:34:36.084Z,21.20
2019-04-05T03:37:05.214Z,21.20
2019-04-05T03:39:34.387Z,21.20
2019-04-05T03:42:03.569Z,21.20
2019-04-05T03:44:32.729Z,21.20
2019-04-05T03:47:01.890Z,21.20
2019-04-05T03:49:31.233Z,21.20
2019-04-05T03:52:00.398Z,21.20
2019-04-05T03:54:29.922Z,21.20
2019-04-05T03:56:59.744Z,21.20
2019-04-05T03:59:29.078Z,21.20
2019-04-05T04:01:58.234Z,21.20
2019-04-05T04:04:27.476Z,21.20
2019-04-05T04:06:57.255Z,21.10
2019-04-05T04:09:26.418Z,21.20
2019-04-05T04:11:55.579Z,21.10
2019-04-05T04:14:24.749Z,21.10
2019-04-05T04:16:54.061Z,21.10
2019-04-05T04:19:23.439Z,21.10
2019-04-05T04:22:13.752Z,21.10
2019-04-05T04:24:42.921Z,21.10
2019-04-05T04:27:12.084Z,21.20
2019-04-05T04:29:41.662Z,21.20
2019-04-05T04:32:10.799Z,21.10
2019-04-05T04:34:39.938Z,21.20
2019-04-05T04:37:09.108Z,21.10
2019-04-05T04:39:38.351Z,21.20
2019-04-05T04:42:07.484Z,21.20
2019-04-05T04:44:36.663Z,21.20
2019-04-05T04:47:05.819Z,21.20
2019-04-05T04:49:34.953Z,21.20
2019-04-05T04:52:04.122Z,21.20
2019-04-05T04:54:33.263Z,21.20
2019-04-05T04:57:02.433Z,21.30
2019-04-05T04:59:31.569Z,21.20
2019-04-05T05:02:00.865Z,21.30
2019-04-05T05:04:30.138Z,21.30
2019-04-05T05:06:59.297Z,21.30
2019-04-05T05:09:28.503Z,21.30
2019-04-05T05:11:57.702Z,21.30
2019-04-05T05:14:27.068Z,21.30
2019-04-05T05:16:56.491Z,21.30
2019-04-05T05:19:25.650Z,21.40
2019-04-05T05:21:54.793Z,21.40
2019-04-05T05:24:24.096Z,21.40
2019-04-05T05:26:53.575Z,21.40
2019-04-05T05:29:22.741Z,21.40
2019-04-05T05:31:51.940Z,21.60
2019-04-05T05:34:21.268Z,21.70
2019-04-05T05:36:50.407Z,21.70
2019-04-05T05:39:19.628Z,21.90
2019-04-05T05:41:48.979Z,21.90
2019-04-05T05:44:18.146Z,21.80
2019-04-05T05:46:47.391Z,21.60
2019-04-05T05:49:22.213Z,21.40
2019-04-05T05:51:51.426Z,21.40
2019-04-05T05:54:20.546Z,21.30
2019-04-05T05:56:49.815Z,21.30
2019-04-05T05:59:19.886Z,21.20
2019-04-05T06:01:49.022Z,21.30
2019-04-05T06:04:18.220Z,21.50
2019-04-05T06:06:47.626Z,21.60
2019-04-05T06:09:16.761Z,21.70
2019-04-05T06:11:45.975Z,21.80
2019-04-05T06:14:15.120Z,21.80
2019-04-05T06:16:46.621Z,21.90
2019-04-05T06:19:15.152Z,21.90
2019-04-05T06:21:44.300Z,21.90
2019-04-05T06:24:13.628Z,22.00
2019-04-05T06:26:42.793Z,22.00
2019-04-05T06:29:11.933Z,22.00
2019-04-05T06:31:41.147Z,22.00
2019-04-05T06:34:10.297Z,22.10
2019-04-05T06:36:39.528Z,22.10
2019-04-05T06:39:09.159Z,22.10
2019-04-05T06:41:38.308Z,22.20
2019-04-05T06:44:07.463Z,22.20
2019-04-05T06:46:36.627Z,22.20
2019-04-05T06:49:05.802Z,22.20
2019-04-05T06:51:34.980Z,22.20
2019-04-05T06:54:04.121Z,22.20
2019-04-05T06:56:33.305Z,22.20
2019-04-05T06:59:02.916Z,22.30
2019-04-05T07:01:32.168Z,22.20
2019-04-05T07:04:01.431Z,22.20
2019-04-05T07:06:30.591Z,22.20
2019-04-05T07:08:59.756Z,22.20
2019-04-05T07:11:28.966Z,22.20
2019-04-05T07:13:58.107Z,22.20
2019-04-05T07:16:27.252Z,22.20
2019-04-05T07:18:56.433Z,22.20
2019-04-05T07:21:25.578Z,22.30
2019-04-05T07:23:54.723Z,22.20
2019-04-05T07:26:23.933Z,22.30
2019-04-05T07:28:53.078Z,22.30
2019-04-05T07:31:22.247Z,22.20
2019-04-05T07:33:51.422Z,22.20
2019-04-05T07:36:20.568Z,22.20
2019-04-05T07:38:49.785Z,22.30
2019-04-05T07:41:19.186Z,22.20
2019-04-05T07:43:48.329Z,22.30
2019-04-05T07:46:17.512Z,22.30
2019-04-05T07:48:46.684Z,22.30
2019-04-05T07:51:15.855Z,22.30
2019-04-05T07:53:45.002Z,22.30
2019-04-05T07:56:14.173Z,22.30
2019-04-05T07:58:43.347Z,22.30
2019-04-05T08:01:12.515Z,22.30
2019-04-05T08:03:41.661Z,22.30
2019-04-05T08:06:11.326Z,22.30
2019-04-05T08:08:51.392Z,22.30
2019-04-05T08:11:20.577Z,22.30
2019-04-05T08:13:49.718Z,22.30
2019-04-05T08:16:18.883Z,22.30
2019-04-05T08:18:57.579Z,22.30
2019-04-05T08:21:18.921Z,22.30
2019-04-05T08:23:48.102Z,22.30
2019-04-05T08:26:17.271Z,22.30
2019-04-05T08:28:46.413Z,22.30
2019-04-05T08:31:15.572Z,22.30
2019-04-05T08:33:44.736Z,22.30
2019-04-05T08:36:13.907Z,22.30
2019-04-05T08:38:43.096Z,22.30
2019-04-05T08:41:12.491Z,22.40
2019-04-05T08:43:41.685Z,22.30
2019-04-05T08:46:10.995Z,22.30
2019-04-05T08:48:40.201Z,22.30
2019-04-05T08:51:09.378Z,22.30
2019-04-05T08:53:38.534Z,22.30
2019-04-05T08:56:07.677Z,22.30
2019-04-05T08:58:36.827Z,22.40
2019-04-05T09:01:05.958Z,22.40
2019-04-05T09:03:35.132Z,22.40
2019-04-05T09:06:04.370Z,22.40
2019-04-05T09:08:33.519Z,22.40
2019-04-05T09:11:02.733Z,22.40
2019-04-05T09:13:31.875Z,22.40
2019-04-05T09:16:01.023Z,22.40
2019-04-05T09:18:30.166Z,22.40
2019-04-05T09:20:59.339Z,22.40
2019-04-05T09:23:28.506Z,22.40
2019-04-05T09:25:57.702Z,22.50
2019-04-05T09:28:26.859Z,22.50
2019-04-05T09:30:55.993Z,22.50
2019-04-05T09:33:25.658Z,22.40
2019-04-05T09:35:54.825Z,22.40
2019-04-05T09:38:24.014Z,22.40
2019-04-05T09:40:53.210Z,22.40
2019-04-05T09:43:22.375Z,22.50
2019-04-05T09:45:51.721Z,22.50
2019-04-05T09:48:20.900Z,22.40
2019-04-05T09:50:50.138Z,22.40
2019-04-05T09:53:19.277Z,22.40
2019-04-05T09:55:48.417Z,22.40
2019-04-05T09:58:17.586Z,22.40
2019-04-05T10:00:46.733Z,22.40
2019-04-05T10:03:15.978Z,22.50
2019-04-05T10:05:45.111Z,22.50
2019-04-05T10:08:14.329Z,22.40
2019-04-05T10:10:43.500Z,22.40
2019-04-05T10:13:12.790Z,22.40
2019-04-05T10:15:42.033Z,22.40
2019-04-05T10:18:11.376Z,22.40
2019-04-05T10:20:40.562Z,22.40
2019-04-05T10:23:09.722Z,22.40
2019-04-05T10:25:38.936Z,22.40
2019-04-05T10:28:08.088Z,22.40
2019-04-05T10:30:37.305Z,22.40
2019-04-05T10:33:06.437Z,22.40
2019-04-05T10:35:35.572Z,22.40
2019-04-05T10:38:05.315Z,22.40
2019-04-05T10:40:34.453Z,22.40
2019-04-05T10:43:03.629Z,22.40
2019-04-05T10:45:32.793Z,22.40
2019-04-05T10:48:01.945Z,22.40
2019-04-05T10:50:31.152Z,22.40
2019-04-05T10:53:00.302Z,22.40
2019-04-05T10:55:29.440Z,22.40
2019-04-05T10:57:58.611Z,22.40
2019-04-05T11:00:28.778Z,22.40
2019-04-05T11:02:57.942Z,22.40
2019-04-05T11:05:27.088Z,22.40
2019-04-05T11:07:56.548Z,22.40
2019-04-05T11:10:25.757Z,22.40
2019-04-05T11:12:54.953Z,22.40
2019-04-05T11:15:24.096Z,22.40
2019-04-05T11:17:53.236Z,22.40
2019-04-05T11:20:22.670Z,22.50
2019-04-05T11:22:51.970Z,22.40
2019-04-05T11:25:21.285Z,22.40
2019-04-05T11:27:50.574Z,22.40
2019-04-05T11:30:42.149Z,22.50
2019-04-05T11:33:11.324Z,22.50
2019-04-05T11:35:40.506Z,22.50
2019-04-05T11:38:10.077Z,22.50
2019-04-05T11:40:39.220Z,22.50
2019-04-05T11:43:08.384Z,22.50
2019-04-05T11:45:37.551Z,22.50
2019-04-05T11:48:06.744Z,22.50
2019-04-05T11:50:35.913Z,22.50
2019-04-05T11:53:05.056Z,22.50
2019-04-05T11:55:34.494Z,22.50
2019-04-05T11:58:03.635Z,22.50
2019-04-05T12:00:39.972Z,22.50
2019-04-05T12:03:10.886Z,22.50
2019-04-05T12:05:40.223Z,22.50
2019-04-05T12:08:09.429Z,22.50
2019-04-05T12:10:39.163Z,22.50
2019-04-05T12:13:08.335Z,22.50
2019-04-05T12:15:37.498Z,22.50
2019-04-05T12:18:06.685Z,22.50
2019-04-05T12:20:47.891Z,22.50
2019-04-05T12:23:06.723Z,22.50
2019-04-05T12:25:35.885Z,22.50
2019-04-05T12:28:08.907Z,22.50
2019-04-05T12:30:38.537Z,22.50
2019-04-05T12:33:14.162Z,22.50
2019-04-05T12:35:38.666Z,22.50
2019-04-05T12:38:07.846Z,22.50
2019-04-05T12:40:40.303Z,22.50
2019-04-05T12:43:07.892Z,22.50
2019-04-05T12:45:37.325Z,22.50
2019-04-05T12:48:06.465Z,22.50
2019-04-05T12:50:35.613Z,22.50
2019-04-05T12:53:04.819Z,22.60
2019-04-05T12:55:33.966Z,22.60
2019-04-05T12:58:03.133Z,22.60
2019-04-05T13:00:32.269Z,22.60
2019-04-05T13:03:01.421Z,22.60
2019-04-05T13:05:30.715Z,22.60
2019-04-05T13:07:59.891Z,22.70
2019-04-05T13:10:30.587Z,22.60
2019-04-05T13:12:59.923Z,22.60
2019-04-05T13:15:29.065Z,22.60
2019-04-05T13:18:00.408Z,22.70
2019-04-05T13:20:30.454Z,22.70
2019-04-05T13:23:02.529Z,22.70
2019-04-05T13:25:31.220Z,22.70
2019-04-05T13:28:12.462Z,22.60
2019-04-05T13:30:31.261Z,22.70
2019-04-05T13:33:00.397Z,22.70
2019-04-05T13:35:29.799Z,22.70
2019-04-05T13:38:00.699Z,22.70
2019-04-05T13:40:30.210Z,22.70
2019-04-05T13:43:02.057Z,22.70
2019-04-05T13:45:30.378Z,22.70
2019-04-05T13:47:59.548Z,22.70
2019-04-05T13:50:28.750Z,22.70
2019-04-05T13:52:57.931Z,22.70
2019-04-05T13:55:27.082Z,22.70
2019-04-05T13:57:56.240Z,22.70
2019-04-05T14:00:25.455Z,22.70
2019-04-05T14:02:54.738Z,22.70
2019-04-05T14:05:24.019Z,22.70
2019-04-05T14:08:09.180Z,22.70
2019-04-05T14:10:24.055Z,22.70
2019-04-05T14:12:53.187Z,22.70
2019-04-05T14:15:22.379Z,22.70
2019-04-05T14:17:51.537Z,22.70
2019-04-05T14:20:20.714Z,22.70
2019-04-05T14:22:51.537Z,22.70
2019-04-05T14:25:20.915Z,22.70
2019-04-05T14:27:50.083Z,22.70
2019-04-05T14:30:19.437Z,22.70
2019-04-05T14:32:51.466Z,22.70
2019-04-05T14:35:19.661Z,22.70
2019-04-05T14:37:49.358Z,22.70
2019-04-05T14:40:18.519Z,22.70
2019-04-05T14:42:47.666Z,22.70
2019-04-05T14:45:16.835Z,22.70
2019-04-05T14:47:46.077Z,22.70
2019-04-05T14:50:16.134Z,22.60
2019-04-05T14:52:45.787Z,22.70
2019-04-05T14:55:15.504Z,22.70
2019-04-05T14:57:44.672Z,22.70
2019-04-05T15:00:15.791Z,22.70
2019-04-05T15:02:45.002Z,22.70
2019-04-05T15:05:14.232Z,22.70
2019-04-05T15:07:43.430Z,22.70
2019-04-05T15:10:12.569Z,22.70
2019-04-05T15:12:41.734Z,22.70
2019-04-05T15:15:10.956Z,22.70
2019-04-05T15:17:47.991Z,22.70
2019-04-05T15:20:11.671Z,22.70
2019-04-05T15:22:42.223Z,22.70
2019-04-05T15:25:11.825Z,22.70
2019-04-05T15:27:41.121Z,22.70
2019-04-05T15:30:10.299Z,22.70
2019-04-05T15:32:39.790Z,22.60
2019-04-05T15:35:09.009Z,22.70
2019-04-05T15:37:38.177Z,22.70
2019-04-05T15:40:08.984Z,22.60
2019-04-05T15:42:38.143Z,22.60
2019-04-05T15:45:09.980Z,22.60
2019-04-05T15:47:39.253Z,22.60
2019-04-05T15:50:08.509Z,22.60
2019-04-05T15:52:37.647Z,22.60
2019-04-05T15:55:07.791Z,22.60
2019-04-05T15:57:39.320Z,22.60
2019-04-05T16:00:10.756Z,22.60
2019-04-05T16:02:42.848Z,22.60
2019-04-05T16:05:10.785Z,22.60
2019-04-05T16:07:40.001Z,22.50
2019-04-05T16:10:11.962Z,22.60
2019-04-05T16:12:41.127Z,22.50
2019-04-05T16:15:10.761Z,22.50
2019-04-05T16:17:39.921Z,22.50
2019-04-05T16:20:10.213Z,22.50
2019-04-05T16:22:39.380Z,22.50
2019-04-05T16:25:10.181Z,22.50
2019-04-05T16:27:39.398Z,22.40
2019-04-05T16:30:08.634Z,22.40
2019-04-05T16:32:37.793Z,22.40
2019-04-05T16:35:07.910Z,22.40
2019-04-05T16:37:37.116Z,22.40
2019-04-05T16:40:09.932Z,22.40
2019-04-05T16:42:39.096Z,22.40
2019-04-05T16:45:09.669Z,22.30
2019-04-05T16:47:38.812Z,22.40
2019-04-05T16:50:08.296Z,22.30
2019-04-05T16:52:44.761Z,22.30
2019-04-05T16:55:08.368Z,22.30
2019-04-05T16:57:37.496Z,22.30
2019-04-05T17:00:09.351Z,22.30
2019-04-05T17:02:38.513Z,22.30
2019-04-05T17:05:07.726Z,22.30
2019-04-05T17:07:37.008Z,22.30
2019-04-05T17:10:06.748Z,22.20
2019-04-05T17:12:35.890Z,22.30
2019-04-05T17:15:07.547Z,22.20
2019-04-05T17:17:36.722Z,22.20
2019-04-05T17:20:08.780Z,22.20
2019-04-05T17:22:37.962Z,22.20
2019-04-05T17:25:09.304Z,22.20
2019-04-05T17:27:38.520Z,22.20
2019-04-05T17:30:07.750Z,22.20
2019-04-05T17:32:36.894Z,22.20
2019-04-05T17:35:07.355Z,22.10
2019-04-05T17:37:36.502Z,22.10
2019-04-05T17:40:08.144Z,22.10
2019-04-05T17:42:37.289Z,22.10
2019-04-05T17:45:08.871Z,22.10
2019-04-05T17:47:38.019Z,22.10
2019-04-05T17:50:10.574Z,22.10
2019-04-05T17:52:39.431Z,22.00
2019-04-05T17:55:08.567Z,22.00
2019-04-05T17:57:37.741Z,22.00
2019-04-05T18:00:11.518Z,22.00
2019-04-05T18:02:40.687Z,21.70
2019-04-05T18:05:10.440Z,21.30
2019-04-05T18:07:39.607Z,21.40
2019-04-05T18:10:08.763Z,21.70
2019-04-05T18:12:37.967Z,21.90
2019-04-05T18:15:07.140Z,22.00
2019-04-05T18:17:36.426Z,22.00
2019-04-05T18:20:09.781Z,22.10
2019-04-05T18:22:38.552Z,22.10
2019-04-05T18:25:07.723Z,22.10
2019-04-05T18:27:37.286Z,22.10
2019-04-05T18:30:07.788Z,22.00
2019-04-05T18:32:36.939Z,22.00
2019-04-05T18:35:06.875Z,22.10
2019-04-05T18:37:36.049Z,22.10
2019-04-05T18:40:07.601Z,22.10
2019-04-05T18:42:36.761Z,22.10
2019-04-05T18:45:07.775Z,22.10
2019-04-05T18:47:36.971Z,22.10
2019-04-05T18:50:07.584Z,22.10
2019-04-05T18:52:36.731Z,22.10
2019-04-05T18:55:08.559Z,22.10
2019-04-05T18:57:37.705Z,22.10
2019-04-05T19:00:08.087Z,22.00
2019-04-05T19:02:37.295Z,22.00
2019-04-05T19:05:07.031Z,22.00
2019-04-05T19:07:36.173Z,22.00
2019-04-05T19:10:07.821Z,22.00
2019-04-05T19:12:37.073Z,22.00
2019-04-05T19:15:07.939Z,22.00
2019-04-05T19:17:37.119Z,22.00
2019-04-05T19:20:07.436Z,22.10
2019-04-05T19:22:36.585Z,22.10
2019-04-05T19:25:08.658Z,22.10
2019-04-05T19:27:37.875Z,22.10
2019-04-05T19:50:15.265Z,22.00
2019-04-05T19:52:44.435Z,22.00
2019-04-05T19:55:13.585Z,22.00
2019-04-05T19:57:42.765Z,22.00
2019-04-05T20:00:25.435Z,22.00
2019-04-05T20:02:57.866Z,22.00
2019-04-05T20:05:29.283Z,22.00
2019-04-05T20:07:58.581Z,22.00
2019-04-05T20:10:27.759Z,22.00
2019-04-05T20:12:56.931Z,22.00
2019-04-05T20:15:26.093Z,21.90
2019-04-05T20:17:55.297Z,22.00
2019-04-05T20:20:24.459Z,21.90
2019-04-05T20:22:53.636Z,21.90
2019-04-05T20:25:22.817Z,21.90
2019-04-05T20:27:51.986Z,21.90
2019-04-05T20:30:21.163Z,21.90
2019-04-05T20:32:50.370Z,21.90
2019-04-05T20:35:19.619Z,21.90
2019-04-05T20:37:48.794Z,21.90
2019-04-05T20:40:17.952Z,21.90
2019-04-05T20:42:47.167Z,21.90
2019-04-05T20:45:16.332Z,21.90
2019-04-05T20:47:45.471Z,21.90
2019-04-05T20:50:14.637Z,22.00
2019-04-05T20:52:43.808Z,22.00
2019-04-05T20:55:12.961Z,22.00
2019-04-05T20:57:42.110Z,21.90
2019-04-05T21:00:13.230Z,21.90
2019-04-05T21:02:42.407Z,21.90
2019-04-05T21:05:11.546Z,21.90
2019-04-05T21:07:40.725Z,21.90
2019-04-05T21:10:09.894Z,21.90
2019-04-05T21:12:39.042Z,21.80
2019-04-05T21:15:08.206Z,21.80
2019-04-05T21:17:37.529Z,21.80
2019-04-05T21:20:06.960Z,21.80
2019-04-05T21:22:36.108Z,21.70
2019-04-05T21:25:07.460Z,21.70
2019-04-05T21:27:36.669Z,21.70
2019-04-05T21:30:07.818Z,21.70
2019-04-05T21:32:36.992Z,21.70
2019-04-05T21:35:07.464Z,21.70
2019-04-05T21:37:36.631Z,21.70
2019-04-05T21:40:07.515Z,21.60
2019-04-05T21:42:36.669Z,21.60
2019-04-05T21:45:07.464Z,21.60
2019-04-05T21:47:36.671Z,21.60
2019-04-05T21:50:07.809Z,21.60
2019-04-05T21:52:36.952Z,21.60
2019-04-05T21:55:07.668Z,21.60
2019-04-05T21:57:36.811Z,21.60
2019-04-05T22:00:16.240Z,21.60
2019-04-05T22:02:45.655Z,21.60
2019-04-05T22:05:14.795Z,21.60
2019-04-05T22:07:43.967Z,21.60
2019-04-05T22:10:13.103Z,21.50
2019-04-05T22:12:42.251Z,21.60
2019-04-05T22:15:13.094Z,21.50
2019-04-05T22:17:42.280Z,21.50
2019-04-05T22:20:11.488Z,21.50
2019-04-05T22:22:40.628Z,21.50
2019-04-05T22:25:10.322Z,21.50
2019-04-05T22:27:39.496Z,21.50
2019-04-05T22:30:08.839Z,21.50
2019-04-05T22:32:37.967Z,21.50
2019-04-05T22:35:07.150Z,21.50
2019-04-05T22:37:36.443Z,21.50
2019-04-05T22:40:07.622Z,21.50
2019-04-05T22:42:36.773Z,21.50
2019-04-05T22:45:07.383Z,21.60
2019-04-05T22:47:36.996Z,21.60
2019-04-05T22:50:09.082Z,21.60
2019-04-05T22:52:38.218Z,21.50
2019-04-05T22:55:11.450Z,21.50
2019-04-05T22:57:38.247Z,21.50
2019-04-05T23:00:08.085Z,21.50
2019-04-05T23:02:37.229Z,21.50
2019-04-05T23:05:07.543Z,21.50
2019-04-05T23:07:36.679Z,21.50
2019-04-05T23:10:09.217Z,21.50
2019-04-05T23:12:38.385Z,21.50
2019-04-05T23:15:08.873Z,21.50
2019-04-05T23:17:38.011Z,21.50
2019-04-05T23:20:08.072Z,21.50
2019-04-05T23:22:37.265Z,21.50
2019-04-05T23:25:09.315Z,21.40
2019-04-05T23:27:38.462Z,21.50
2019-04-05T23:30:07.806Z,21.40
2019-04-05T23:32:36.936Z,21.40
2019-04-05T23:35:07.815Z,21.40
2019-04-05T23:37:36.959Z,21.40
2019-04-05T23:40:07.063Z,21.40
2019-04-05T23:42:36.214Z,21.40
2019-04-05T23:45:07.061Z,21.40
2019-04-05T23:47:36.209Z,21.40
2019-04-05T23:50:06.181Z,21.40
2019-04-05T23:52:35.273Z,21.40
2019-04-05T23:55:05.967Z,21.40
2019-04-05T23:57:35.108Z,21.40
